CCGS Terry Fox — CGTF — position and weather

sailwx.info

Track history (hours):
 
Tides and Currents Weather Stations Pressure Air Temp Water Temp Dewpoint Dewpoint Depression Visibility Wind Speed Wind Dir Waves Ship Positions

Oceanographic research ship CCGS Terry Fox (Canada)

Detailed information on ship capabilities available from ARCUS's ALIAS (Arctic Logistics Information and Support) project.

Last reported at 2017-Jun-26 07:00 UTC. Time now 2017-Jun-26 08:41 UTC.
Position N 60°54' W 064°54'.

Length 88 m; beam 17.82 m; draft 2 m.

Type: SAR. MMSI: 316122000.

Wind from 040 at 21 knots

Barometer 984.7 mb
Air temperature 0.3 ° C
Dewpoint 0.2 ° C

Date/timePositionNaut miles runAvg speedWind from/ knotsBaromVisibWave heightAir tempDewpointWater temp
2017-Jun-26 07:00N 60°54' W 064°54'6 5.8 040 / 21984.7 0.3 0.2
2017-Jun-26 06:00N 60°54' W 065°06'6 5.8 020 / 20984.2 0.6 0.5
2017-Jun-26 05:00N 60°54' W 065°18'3 2.9 020 / 22983.7 0.8 0.8
2017-Jun-26 04:00N 60°54' W 065°24'3 2.9 030 / 22983.9 1.1 1.0
2017-Jun-26 03:00N 60°54' W 065°30'3 2.9 020 / 21984.6 1.5 1.4
2017-Jun-26 02:00N 60°54' W 065°36'3 2.9 350 / 21985.4 0.9 0.8
2017-Jun-26 01:00N 60°54' W 065°42'7 6.7 350 / 21985.7 0.7 0.6
2017-Jun-26 00:00N 61°00' W 065°48'0 0.0 360 / 24986.5 0.8 0.7
2017-Jun-25 23:00N 61°00' W 065°48'3 2.9 360 / 25987.0 0.8 0.7
2017-Jun-25 22:00N 61°00' W 065°54'8 8.4 360 / 27987.5 0.3 0.2
2017-Jun-25 21:00N 61°06' W 066°06'8 8.3 360 / 31988.4 0.5 0.4
2017-Jun-25 20:00N 61°12' W 066°18'6 5.8 010 / 29989.5 0.8 0.7
2017-Jun-25 19:00N 61°12' W 066°30'8 8.3 010 / 27990.3 0.6 0.5
2017-Jun-25 18:00N 61°18' W 066°42'6 5.8 020 / 29991.0 0.8 0.7
2017-Jun-25 17:00N 61°18' W 066°54'8 4.2 030 / 28990.9 0.9 0.8
2017-Jun-25 15:00N 61°24' W 067°06'0 0.0 030 / 25991.8 1.0 0.9
2017-Jun-25 14:00N 61°24' W 067°06'8 8.3 050 / 22992.0 7.1 5.0
2017-Jun-25 13:00N 61°18' W 066°54'6 5.8 060 / 16992.0 8.1 5.5
2017-Jun-25 12:00N 61°18' W 066°42'3 2.9 050 / 26992.2 7.6 5.5
2017-Jun-25 11:00N 61°18' W 066°36'6 5.8 040 / 19992.5 3.2 3.1
2017-Jun-25 10:00N 61°18' W 066°24'1110.5 050 / 13993.1 7.6 5.4
2017-Jun-25 09:00N 61°12' W 066°06'6 5.8 050 / 15994.0 7.5 5.5
2017-Jun-25 08:00N 61°12' W 065°54'1110.6 040 / 15994.4 1.7 1.6
2017-Jun-25 07:00N 61°06' W 065°36'9 8.7 080 / 20994.5 6.3 5.1
2017-Jun-25 06:00N 61°06' W 065°18'1110.6 080 / 21994.6 9.7 6.7
2017-Jun-25 05:00N 61°00' W 065°00'8 8.4 090 / 17994.9 10.3 7.2
2017-Jun-25 04:00N 60°54' W 064°48'6 5.8 110 / 7995.1 5.3 4.8
2017-Jun-25 03:00N 60°54' W 064°36'1110.6 120 / 8995.9 5.2 4.6
2017-Jun-25 02:00N 60°48' W 064°18'1514.9 110 / 20996.9 4.0 3.9
2017-Jun-25 01:00N 60°36' W 064°00'1514.9 110 / 17997.2 2.9 2.8
2017-Jun-25 00:00N 60°24' W 063°42'1313.4 120 / 17997.6 3.5 3.4
2017-Jun-24 23:00N 60°12' W 063°30'1515.0 130 / 19997.8 4.3 4.1
2017-Jun-24 22:00N 60°00' W 063°12'1515.0 130 / 21998.2 7.3 6.2
2017-Jun-24 21:00N 59°48' W 062°54'9 8.5 130 / 21998.4 9.6 7.5
2017-Jun-24 20:00N 59°42' W 062°42'1515.1 130 / 20999.0 10.4 8.2
2017-Jun-24 19:00N 59°30' W 062°24'1313.5 130 / 17999.7 9.6 7.8
2017-Jun-24 18:00N 59°18' W 062°12'1111.0 130 / 131000.8 6.1 5.9
2017-Jun-24 17:00N 59°12' W 061°54'1919.0 140 / 131001.6 4.8 4.7
2017-Jun-24 16:00N 58°54' W 061°42'9 8.6 130 / 171002.1 4.7 4.6
2017-Jun-24 15:00N 58°48' W 061°30'6 6.0 120 / 261002.3 3.0 2.9
2017-Jun-24 14:00N 58°54' W 061°30'9 9.3 120 / 231003.2 2.7 2.6
2017-Jun-24 13:00N 58°54' W 061°48'1717.3 130 / 211003.1 3.7 3.6
2017-Jun-24 12:00N 58°42' W 062°12'1111.1 130 / 211003.2 3.2 3.1
2017-Jun-24 11:00N 58°36' W 062°30'1413.9 140 / 151004.0 2.9 2.8
2017-Jun-24 10:00N 58°30' W 062°54'9 8.7 060 / 131003.6 4.1 4.0
2017-Jun-24 09:00N 58°24' W 063°06'3 3.1 110 / 21004.3 6.7 5.8
2017-Jun-24 08:00N 58°24' W 063°12'0 0.0 1005.4 6.8 5.6
2017-Jun-24 07:00N 58°24' W 063°12'0 0.0 300 / 21005.3 6.5 5.5
2017-Jun-24 06:00N 58°24' W 063°12'0 0.0 1006.1 7.5 6.1
2017-Jun-24 05:00N 58°24' W 063°12'0 0.0 010 / 31006.9 6.3 5.7
2017-Jun-24 04:00N 58°24' W 063°12'0 0.0 020 / 61007.5 6.6 5.3
2017-Jun-24 03:00N 58°24' W 063°12'0 0.0 020 / 61007.9 6.4 4.9
2017-Jun-24 02:00N 58°24' W 063°12'0 0.0 030 / 81008.4 6.4 5.0
2017-Jun-24 01:00N 58°24' W 063°12'0 0.0 030 / 101008.5 7.1 4.6
2017-Jun-24 00:00N 58°24' W 063°12'0 0.0 040 / 121008.5 7.3 5.1
2017-Jun-23 23:00N 58°24' W 063°12'0 0.0 360 / 81008.4 9.0 4.4
2017-Jun-23 22:00N 58°24' W 063°12'0 0.0 350 / 91008.6 9.9 4.2
2017-Jun-23 20:00N 58°24' W 063°12'0 0.0 060 / 31009.3 11.3 5.1
2017-Jun-23 19:00N 58°24' W 063°12'0 0.0 040 / 101009.6 9.4 5.7
2017-Jun-23 18:00N 58°24' W 063°12'0 0.0 030 / 101010.3 10.3 5.2
2017-Jun-23 17:00N 58°24' W 063°12'3 3.1 050 / 21010.9 10.3 5.5
2017-Jun-23 16:00N 58°24' W 063°06'1111.2 050 / 81011.3 8.2 5.1
2017-Jun-23 15:00N 58°30' W 063°24'0 0.0 120 / 151011.2 8.7 4.8
2017-Jun-23 14:00N 58°30' W 063°24'2512.5 120 / 81011.9 7.7 5.1
2017-Jun-23 12:00N 58°30' W 062°36'1212.4 160 / 121012.8 3.7 3.6
2017-Jun-23 11:00N 58°18' W 062°30'9 8.7 140 / 61012.6 4.0 4.0
2017-Jun-23 10:00N 58°12' W 062°42'1414.0 070 / 71012.5 4.3 4.3
2017-Jun-23 09:00N 58°06' W 063°06'3 3.2 060 / 91012.6 5.5 5.2
2017-Jun-23 08:00N 58°06' W 063°12'0 0.0 090 / 61012.6 5.3 5.2
2017-Jun-23 07:00N 58°06' W 063°12'0 0.0 070 / 61012.8 5.4 5.3
2017-Jun-23 06:00N 58°06' W 063°12'0 0.0 060 / 101013.1 5.4 5.2
2017-Jun-23 05:00N 58°06' W 063°12'0 0.0 070 / 91013.3 6.1 5.1
2017-Jun-23 04:00N 58°06' W 063°12'0 0.0 060 / 81013.4 5.7 5.5
2017-Jun-23 03:00N 58°06' W 063°12'0 0.0 060 / 101013.7 5.8 5.7
2017-Jun-23 02:00N 58°06' W 063°12'0 0.0 070 / 81013.4 6.3 5.9
2017-Jun-23 01:00N 58°06' W 063°12'0 0.0 020 / 61013.3 6.4 6.2
2017-Jun-23 00:00N 58°06' W 063°12'0 0.0 060 / 61013.2 8.0 5.8
2017-Jun-22 23:00N 58°06' W 063°12'0 0.0 040 / 41013.0 8.4 6.2
2017-Jun-22 22:00N 58°06' W 063°12'0 0.0 040 / 61012.5 7.8 6.6
2017-Jun-22 21:00N 58°06' W 063°12'0 0.0 040 / 111012.3 7.8 6.6
2017-Jun-22 20:00N 58°06' W 063°12'0 0.0 060 / 101012.4 7.1 6.5
2017-Jun-22 19:00N 58°06' W 063°12'0 0.0 030 / 31012.5 7.1 7.0
2017-Jun-22 18:00N 58°06' W 063°12'0 0.0 060 / 31012.7 6.4 6.4
2017-Jun-22 17:00N 58°06' W 063°12'0 0.0 050 / 21012.9 6.0 6.0
2017-Jun-22 16:00N 58°06' W 063°12'0 0.0 060 / 41013.1 5.0 5.0
2017-Jun-22 15:00N 58°06' W 063°12'0 0.0 060 / 31013.2 5.9 5.8
2017-Jun-22 14:00N 58°06' W 063°12'1414.0 050 / 41012.9 4.8 4.7
2017-Jun-22 13:00N 58°12' W 062°48'6 6.3 100 / 81013.0 3.6 3.6
2017-Jun-22 12:00N 58°12' W 062°36'1414.0 060 / 21012.8 2.6 2.6
2017-Jun-22 11:00N 58°18' W 062°12'1312.6 110 / 31012.6 2.0 2.1
2017-Jun-22 10:00N 58°18' W 061°48'1111.2 020 / 61011.9 1.8 1.9
2017-Jun-22 09:00N 58°12' W 061°30'1414.0 040 / 51011.7 2.2 2.3
2017-Jun-22 08:00N 58°06' W 061°06'1717.5 020 / 51011.5 2.6 2.6
2017-Jun-22 07:00N 57°54' W 060°42'9 8.8 050 / 71011.0 2.3 2.4
2017-Jun-22 06:00N 57°48' W 060°30'1413.6 040 / 101011.0 2.1 2.2
2017-Jun-22 05:00N 57°36' W 060°18'1414.2 040 / 101010.7 1.9 1.9
2017-Jun-22 04:00N 57°30' W 059°54'1111.4 030 / 101010.7 2.1 2.1
2017-Jun-22 03:00N 57°24' W 059°36'1111.4 010 / 81010.7 2.2 2.2
2017-Jun-22 02:00N 57°18' W 059°18'9 8.8 010 / 81010.5 2.6 2.7
2017-Jun-22 01:00N 57°12' W 059°06'1515.5 010 / 71009.9 2.7 2.7
2017-Jun-22 00:00N 57°00' W 058°48'1211.5 020 / 61009.1 2.5 2.5
2017-Jun-21 23:00N 56°54' W 058°30'1413.7 030 / 91008.3 3.1 3.1
2017-Jun-21 22:00N 56°42' W 058°18'9 8.9 030 / 111007.9 3.2 3.2
2017-Jun-21 21:00N 56°36' W 058°06'1413.7 020 / 81007.6 3.8 3.8
2017-Jun-21 20:00N 56°24' W 057°54'1211.6 030 / 141006.7 3.6 3.6
2017-Jun-21 19:00N 56°18' W 057°36'1212.5 020 / 141006.0 3.7 3.7
2017-Jun-21 18:00N 56°06' W 057°30'1413.7 020 / 151005.4 3.3 3.3
2017-Jun-21 17:00N 55°54' W 057°18'7 6.9 010 / 121004.6 2.4 2.4
2017-Jun-21 16:00N 55°48' W 057°12'1615.7 360 / 141003.8 2.0 2.0
2017-Jun-21 15:00N 55°36' W 056°54'2110.3 030 / 171002.5 2.7 2.7
2017-Jun-21 13:00N 55°18' W 056°36'1413.8 030 / 201000.3 2.4 2.4
2017-Jun-21 12:00N 55°06' W 056°24'1413.8 030 / 20999.1 2.7 2.7
2017-Jun-21 11:00N 54°54' W 056°12'1212.5 050 / 20998.2 2.7 2.8
2017-Jun-21 10:00N 54°42' W 056°06'9 9.2 050 / 20997.7 2.5 2.5
2017-Jun-21 09:00N 54°36' W 055°54'1413.9 080 / 9997.2 2.3 2.3
2017-Jun-21 08:00N 54°24' W 055°42'7 6.9 040 / 17996.5 1.9 1.9
2017-Jun-21 07:00N 54°18' W 055°36'1413.9 070 / 10996.7 3.0 3.0
2017-Jun-21 06:00N 54°06' W 055°24'1312.5 080 / 8997.5 2.9 2.9
2017-Jun-21 05:00N 53°54' W 055°18'9 9.3 120 / 9997.9 3.0 3.0
2017-Jun-21 04:00N 53°48' W 055°06'9 9.3 120 / 9999.5 3.1 3.1
2017-Jun-21 03:00N 53°42' W 054°54'1312.5 070 / 10999.5 2.8 2.8
2017-Jun-21 02:00N 53°30' W 054°48'7 7.0 010 / 71001.0 2.5 2.5
2017-Jun-21 01:00N 53°24' W 054°42'1212.0 300 / 81001.3 3.0 3.0
2017-Jun-21 00:00N 53°12' W 054°42'1818.4 270 / 101001.9 3.3 3.3
2017-Jun-20 23:00N 52°54' W 054°36'6 6.0 300 / 81001.7 4.1 4.1
2017-Jun-20 22:00N 52°48' W 054°36'1212.0 250 / 111003.0 4.5 4.5
2017-Jun-20 21:00N 52°36' W 054°36'1212.0 240 / 141002.2 4.9 4.9
2017-Jun-20 20:00N 52°24' W 054°36'1312.5 210 / 261002.3 6.7 6.8
2017-Jun-20 19:00N 52°12' W 054°42'6 6.0 210 / 171003.5 6.3 6.4
2017-Jun-20 18:00N 52°06' W 054°42'1212.0 210 / 161004.8 6.0 6.0
2017-Jun-20 17:00N 51°54' W 054°42'1212.0 180 / 151005.5 5.5 5.5
2017-Jun-20 16:00N 51°42' W 054°42'1212.0 180 / 91006.4 4.6 4.6
2017-Jun-20 15:00N 51°30' W 054°42'6 6.0 200 / 61007.3 4.5 4.5
2017-Jun-20 14:00N 51°24' W 054°42'1312.6
2017-Jun-20 13:00N 51°12' W 054°48'1212.0 210 / 141008.7 5.1 5.1
2017-Jun-20 12:00N 51°00' W 054°48'6 6.0 210 / 91009.7 5.3 5.2
2017-Jun-20 11:00N 50°54' W 054°48'1212.0 210 / 81010.1 4.8 4.8
2017-Jun-20 10:00N 50°42' W 054°48'1312.6 190 / 91010.3 5.3 5.3
2017-Jun-20 09:00N 50°30' W 054°54'7 7.1 180 / 71011.2 4.8 4.8
2017-Jun-20 08:00N 50°24' W 054°48'1312.6 120 / 31011.3 4.9 4.8
2017-Jun-20 07:00N 50°12' W 054°54'6 6.0 070 / 91011.3 4.9 4.8
2017-Jun-20 06:00N 50°06' W 054°54'1212.0 020 / 61012.1 5.1 5.1
2017-Jun-20 05:00N 49°54' W 054°54'0 0.0 340 / 91012.4 5.4 5.3
2017-Jun-20 04:00N 49°54' W 054°54'6 6.0 310 / 71012.6 5.9 5.8
2017-Jun-20 03:00N 49°48' W 054°54'6 6.0 360 / 61012.4 8.3 8.2
2017-Jun-20 02:00N 49°42' W 054°54'0 0.0 340 / 111012.3 8.4 8.3
2017-Jun-20 01:00N 49°42' W 054°54'0 0.0 290 / 81012.2 16.216.1
2017-Jun-20 00:00N 49°42' W 054°54'0 0.0 280 / 41011.6 15.515.4
2017-Jun-19 23:00N 49°42' W 054°54'0 0.0 240 / 101010.9 16.716.6
2017-Jun-19 22:00N 49°42' W 054°54'0 0.0 250 / 71010.5 18.318.3
2017-Jun-19 21:00N 49°42' W 054°54'10 9.8 230 / 31009.9 20.520.5
2017-Jun-19 20:00N 49°36' W 055°06'6 6.0 330 / 11009.5 21.221.1
2017-Jun-19 19:00N 49°30' W 055°06'1312.6 150 / 11009.3 20.120.0
2017-Jun-19 18:00N 49°18' W 055°12'7 7.2 210 / 131009.4 24.921.8
2017-Jun-19 17:00N 49°12' W 055°18'0 0.0 220 / 71009.4 24.721.4
2017-Jun-19 16:00N 49°12' W 055°18'0 0.0 220 / 171009.4 24.721.6
2017-Jun-19 15:00N 49°12' W 055°18'7 7.2 220 / 171009.3 25.122.0
2017-Jun-19 14:00N 49°18' W 055°12'1818.4 170 / 151009.4 21.319.4
2017-Jun-19 13:00N 49°36' W 055°06'0 0.0 170 / 191009.7 17.616.9
2017-Jun-19 12:00N 49°36' W 055°06'1312.6 170 / 151010.4 16.416.0
2017-Jun-19 11:00N 49°24' W 055°12'1312.6 190 / 141011.2 14.714.6
2017-Jun-19 10:00N 49°12' W 055°18'6 6.0 200 / 131011.5 17.816.3
2017-Jun-19 09:00N 49°06' W 055°18'0 0.0 210 / 61011.2 22.517.9
2017-Jun-19 08:00N 49°06' W 055°18'0 0.0 210 / 61011.0 18.316.1
2017-Jun-19 07:00N 49°06' W 055°18'0 0.0 210 / 61011.1 14.614.3
2017-Jun-19 06:00N 49°06' W 055°18'0 0.0 210 / 91011.1 14.113.6
2017-Jun-19 05:00N 49°06' W 055°18'0 0.0 210 / 71011.5 13.313.2
2017-Jun-19 04:00N 49°06' W 055°18'0 0.0 210 / 81012.1 13.413.2
2017-Jun-19 03:00N 49°06' W 055°18'0 0.0 210 / 121012.6 13.613.5
2017-Jun-19 02:00N 49°06' W 055°18'0 0.0 210 / 51012.9 15.515.2
2017-Jun-19 01:00N 49°06' W 055°18'0 0.0 210 / 111013.2 15.815.7
2017-Jun-19 00:00N 49°06' W 055°18'0 0.0 160 / 71013.4 16.916.6
2017-Jun-18 23:00N 49°06' W 055°18'0 0.0 200 / 121014.4 16.616.3
2017-Jun-18 22:00N 49°06' W 055°18'0 0.0 200 / 101015.2 16.516.2
2017-Jun-18 21:00N 49°06' W 055°18'0 0.0 190 / 121015.6 17.416.6
2017-Jun-18 20:00N 49°06' W 055°18'0 0.0 210 / 171016.2 17.216.6
2017-Jun-18 18:00N 49°06' W 055°18'0 0.0 200 / 171016.3 18.917.2
2017-Jun-18 17:00N 49°06' W 055°18'0 0.0 200 / 201017.6 16.816.1
2017-Jun-18 16:00N 49°06' W 055°18'0 0.0 210 / 201017.8 17.215.9
2017-Jun-18 15:00N 49°06' W 055°18'0 0.0 210 / 171018.1 16.215.3
2017-Jun-18 14:00N 49°06' W 055°18'0 0.0 210 / 181018.7 14.914.6
2017-Jun-18 13:00N 49°06' W 055°18'0 0.0 210 / 131019.6 14.314.0
2017-Jun-18 12:00N 49°06' W 055°18'0 0.0 210 / 131020.0 13.413.2
2017-Jun-18 11:00N 49°06' W 055°18'0 0.0 210 / 141020.3 12.912.7
2017-Jun-18 10:00N 49°06' W 055°18'0 0.0 210 / 121020.2 12.612.4
2017-Jun-18 09:00N 49°06' W 055°18'0 0.0 210 / 131020.9 11.611.5
2017-Jun-18 08:00N 49°06' W 055°18'0 0.0 210 / 121021.2 11.311.1
2017-Jun-18 07:00N 49°06' W 055°18'0 0.0 210 / 111021.5 11.310.9
2017-Jun-18 06:00N 49°06' W 055°18'0 0.0 210 / 81022.1 11.811.0
2017-Jun-18 05:00N 49°06' W 055°18'0 0.0 210 / 111022.3 11.810.8
2017-Jun-18 04:00N 49°06' W 055°18'0 0.0 210 / 131022.9 13.111.0
2017-Jun-18 03:00N 49°06' W 055°18'0 0.0 210 / 111023.5 14.011.5
2017-Jun-18 02:00N 49°06' W 055°18'0 0.0 210 / 81023.8 15.011.8
2017-Jun-18 01:00N 49°06' W 055°18'0 0.0 210 / 91024.0 15.810.7
2017-Jun-18 00:00N 49°06' W 055°18'0 0.0 210 / 101024.0 16.510.9
2017-Jun-17 23:00N 49°06' W 055°18'0 0.0 200 / 61024.1 17.510.6
2017-Jun-17 22:00N 49°06' W 055°18'0 0.0 210 / 91023.7 18.710.6
2017-Jun-17 21:00N 49°06' W 055°18'0 0.0 210 / 61024.0 18.712.1
2017-Jun-17 20:00N 49°06' W 055°18'0 0.0 220 / 21024.1 19.011.9
2017-Jun-17 19:00N 49°06' W 055°18'0 0.0 210 / 81023.9 19.710.7
2017-Jun-17 18:00N 49°06' W 055°18'0 0.0 220 / 51023.9 20.110.4
2017-Jun-17 17:00N 49°06' W 055°18'0 0.0 210 / 51024.1 19.510.5
2017-Jun-17 16:00N 49°06' W 055°18'0 0.0 210 / 41024.2 19.7 9.7
2017-Jun-17 15:00N 49°06' W 055°18'0 0.0 210 / 81024.3 20.110.3
2017-Jun-17 14:00N 49°06' W 055°18'0 0.0 220 / 41025.1 19.0 8.8
2017-Jun-17 13:00N 49°06' W 055°18'0 0.0 190 / 31025.6 16.310.1
2017-Jun-17 12:00N 49°06' W 055°18'0 0.0 160 / 21026.0 14.210.4
2017-Jun-17 11:00N 49°06' W 055°18'0 0.0 200 / 31026.1 11.9 8.9
2017-Jun-17 10:00N 49°06' W 055°18'0 0.0 210 / 51026.1 10.2 8.2
2017-Jun-17 09:00N 49°06' W 055°18'0 0.0 210 / 41025.8 8.7 7.3
2017-Jun-17 08:00N 49°06' W 055°18'0 0.0 200 / 41025.5 8.2 7.2
2017-Jun-17 07:00N 49°06' W 055°18'0 0.0 210 / 41024.9 8.8 7.0
2017-Jun-17 06:00N 49°06' W 055°18'0 0.0 150 / 11024.9 8.7 7.6
2017-Jun-17 05:00N 49°06' W 055°18'0 0.0 210 / 61024.6 9.6 7.7
2017-Jun-17 04:00N 49°06' W 055°18'0 0.0 210 / 51024.4 9.2 8.2
2017-Jun-17 03:00N 49°06' W 055°18'0 0.0 1024.0 8.9 8.5
2017-Jun-17 02:00N 49°06' W 055°18'0 0.0 220 / 11023.6 12.3 8.8
2017-Jun-17 01:00N 49°06' W 055°18'0 0.0 300 / 51023.6 12.1 7.5
2017-Jun-17 00:00N 49°06' W 055°18'0 0.0 010 / 11023.0 13.5 9.1
2017-Jun-16 23:00N 49°06' W 055°18'0 0.0 020 / 21023.0 14.5 8.8
2017-Jun-16 22:00N 49°06' W 055°18'0 0.0 090 / 31022.5 14.9 7.7
2017-Jun-16 21:00N 49°06' W 055°18'0 0.0 350 / 61022.3 12.6 8.2
2017-Jun-16 20:00N 49°06' W 055°18'0 0.0 360 / 61022.3 12.7 7.3
2017-Jun-16 19:00N 49°06' W 055°18'0 0.0 360 / 51022.3 13.3 7.2
2017-Jun-16 18:00N 49°06' W 055°18'0 0.0 050 / 91022.3 12.3 5.5
2017-Jun-16 17:00N 49°06' W 055°18'0 0.0 040 / 91022.3 12.0 4.6
2017-Jun-16 16:00N 49°06' W 055°18'0 0.0 020 / 101022.5 11.8 5.5
2017-Jun-16 15:00N 49°06' W 055°18'0 0.0 360 / 81022.5 11.8 6.9
2017-Jun-16 14:00N 49°06' W 055°18'0 0.0 020 / 121022.1 10.6 7.4
2017-Jun-16 13:00N 49°06' W 055°18'0 0.0 330 / 81021.8 12.0 7.5
2017-Jun-16 12:00N 49°06' W 055°18'0 0.0 320 / 61021.8 11.3 6.9
2017-Jun-16 11:00N 49°06' W 055°18'0 0.0 140 / 31021.5 9.5 8.4
2017-Jun-16 10:00N 49°06' W 055°18'0 0.0 210 / 21021.1 8.4 7.1
2017-Jun-16 09:00N 49°06' W 055°18'0 0.0 200 / 51020.4 3.3 3.1
2017-Jun-16 08:00N 49°06' W 055°18'0 0.0 210 / 21019.9 3.4 3.2
2017-Jun-16 07:00N 49°06' W 055°18'   210 / 31019.8 3.4 3.2
Track history (hours):
 
Tides and Currents Weather Stations Pressure Air Temp Water Temp Dewpoint Dewpoint Depression Visibility Wind Speed Wind Dir Waves Ship Positions

Oceanographic research ship CCGS Terry Fox (Canada)

Detailed information on ship capabilities available from ARCUS's ALIAS (Arctic Logistics Information and Support) project.

Last reported at 2017-Jun-26 07:00 UTC. Time now 2017-Jun-26 08:41 UTC.
Position N 60°54' W 064°54'.

Length 88 m; beam 17.82 m; draft 2 m.

Type: SAR. MMSI: 316122000.

Wind from 040 at 21 knots

Barometer 984.7 mb
Air temperature 0.3 ° C
Dewpoint 0.2 ° C

Date/timePositionNaut miles runAvg speedWind from/ knotsBaromVisibWave heightAir tempDewpointWater temp
2017-Jun-26 07:00N 60°54' W 064°54'6 5.8 040 / 21984.7 0.3 0.2
2017-Jun-26 06:00N 60°54' W 065°06'6 5.8 020 / 20984.2 0.6 0.5
2017-Jun-26 05:00N 60°54' W 065°18'3 2.9 020 / 22983.7 0.8 0.8
2017-Jun-26 04:00N 60°54' W 065°24'3 2.9 030 / 22983.9 1.1 1.0
2017-Jun-26 03:00N 60°54' W 065°30'3 2.9 020 / 21984.6 1.5 1.4
2017-Jun-26 02:00N 60°54' W 065°36'3 2.9 350 / 21985.4 0.9 0.8
2017-Jun-26 01:00N 60°54' W 065°42'7 6.7 350 / 21985.7 0.7 0.6
2017-Jun-26 00:00N 61°00' W 065°48'0 0.0 360 / 24986.5 0.8 0.7
2017-Jun-25 23:00N 61°00' W 065°48'3 2.9 360 / 25987.0 0.8 0.7
2017-Jun-25 22:00N 61°00' W 065°54'8 8.4 360 / 27987.5 0.3 0.2
2017-Jun-25 21:00N 61°06' W 066°06'8 8.3 360 / 31988.4 0.5 0.4
2017-Jun-25 20:00N 61°12' W 066°18'6 5.8 010 / 29989.5 0.8 0.7
2017-Jun-25 19:00N 61°12' W 066°30'8 8.3 010 / 27990.3 0.6 0.5
2017-Jun-25 18:00N 61°18' W 066°42'6 5.8 020 / 29991.0 0.8 0.7
2017-Jun-25 17:00N 61°18' W 066°54'8 4.2 030 / 28990.9 0.9 0.8
2017-Jun-25 15:00N 61°24' W 067°06'0 0.0 030 / 25991.8 1.0 0.9
2017-Jun-25 14:00N 61°24' W 067°06'8 8.3 050 / 22992.0 7.1 5.0
2017-Jun-25 13:00N 61°18' W 066°54'6 5.8 060 / 16992.0 8.1 5.5
2017-Jun-25 12:00N 61°18' W 066°42'3 2.9 050 / 26992.2 7.6 5.5
2017-Jun-25 11:00N 61°18' W 066°36'6 5.8 040 / 19992.5 3.2 3.1
2017-Jun-25 10:00N 61°18' W 066°24'1110.5 050 / 13993.1 7.6 5.4
2017-Jun-25 09:00N 61°12' W 066°06'6 5.8 050 / 15994.0 7.5 5.5
2017-Jun-25 08:00N 61°12' W 065°54'1110.6 040 / 15994.4 1.7 1.6
2017-Jun-25 07:00N 61°06' W 065°36'9 8.7 080 / 20994.5 6.3 5.1
2017-Jun-25 06:00N 61°06' W 065°18'1110.6 080 / 21994.6 9.7 6.7
2017-Jun-25 05:00N 61°00' W 065°00'8 8.4 090 / 17994.9 10.3 7.2
2017-Jun-25 04:00N 60°54' W 064°48'6 5.8 110 / 7995.1 5.3 4.8
2017-Jun-25 03:00N 60°54' W 064°36'1110.6 120 / 8995.9 5.2 4.6
2017-Jun-25 02:00N 60°48' W 064°18'1514.9 110 / 20996.9 4.0 3.9
2017-Jun-25 01:00N 60°36' W 064°00'1514.9 110 / 17997.2 2.9 2.8
2017-Jun-25 00:00N 60°24' W 063°42'1313.4 120 / 17997.6 3.5 3.4
2017-Jun-24 23:00N 60°12' W 063°30'1515.0 130 / 19997.8 4.3 4.1
2017-Jun-24 22:00N 60°00' W 063°12'1515.0 130 / 21998.2 7.3 6.2
2017-Jun-24 21:00N 59°48' W 062°54'9 8.5 130 / 21998.4 9.6 7.5
2017-Jun-24 20:00N 59°42' W 062°42'1515.1 130 / 20999.0 10.4 8.2
2017-Jun-24 19:00N 59°30' W 062°24'1313.5 130 / 17999.7 9.6 7.8
2017-Jun-24 18:00N 59°18' W 062°12'1111.0 130 / 131000.8 6.1 5.9
2017-Jun-24 17:00N 59°12' W 061°54'1919.0 140 / 131001.6 4.8 4.7
2017-Jun-24 16:00N 58°54' W 061°42'9 8.6 130 / 171002.1 4.7 4.6
2017-Jun-24 15:00N 58°48' W 061°30'6 6.0 120 / 261002.3 3.0 2.9
2017-Jun-24 14:00N 58°54' W 061°30'9 9.3 120 / 231003.2 2.7 2.6
2017-Jun-24 13:00N 58°54' W 061°48'1717.3 130 / 211003.1 3.7 3.6
2017-Jun-24 12:00N 58°42' W 062°12'1111.1 130 / 211003.2 3.2 3.1
2017-Jun-24 11:00N 58°36' W 062°30'1413.9 140 / 151004.0 2.9 2.8
2017-Jun-24 10:00N 58°30' W 062°54'9 8.7 060 / 131003.6 4.1 4.0
2017-Jun-24 09:00N 58°24' W 063°06'3 3.1 110 / 21004.3 6.7 5.8
2017-Jun-24 08:00N 58°24' W 063°12'0 0.0 1005.4 6.8 5.6
2017-Jun-24 07:00N 58°24' W 063°12'0 0.0 300 / 21005.3 6.5 5.5
2017-Jun-24 06:00N 58°24' W 063°12'0 0.0 1006.1 7.5 6.1
2017-Jun-24 05:00N 58°24' W 063°12'0 0.0 010 / 31006.9 6.3 5.7
2017-Jun-24 04:00N 58°24' W 063°12'0 0.0 020 / 61007.5 6.6 5.3
2017-Jun-24 03:00N 58°24' W 063°12'0 0.0 020 / 61007.9 6.4 4.9
2017-Jun-24 02:00N 58°24' W 063°12'0 0.0 030 / 81008.4 6.4 5.0
2017-Jun-24 01:00N 58°24' W 063°12'0 0.0 030 / 101008.5 7.1 4.6
2017-Jun-24 00:00N 58°24' W 063°12'0 0.0 040 / 121008.5 7.3 5.1
2017-Jun-23 23:00N 58°24' W 063°12'0 0.0 360 / 81008.4 9.0 4.4
2017-Jun-23 22:00N 58°24' W 063°12'0 0.0 350 / 91008.6 9.9 4.2
2017-Jun-23 20:00N 58°24' W 063°12'0 0.0 060 / 31009.3 11.3 5.1
2017-Jun-23 19:00N 58°24' W 063°12'0 0.0 040 / 101009.6 9.4 5.7
2017-Jun-23 18:00N 58°24' W 063°12'0 0.0 030 / 101010.3 10.3 5.2
2017-Jun-23 17:00N 58°24' W 063°12'3 3.1 050 / 21010.9 10.3 5.5
2017-Jun-23 16:00N 58°24' W 063°06'1111.2 050 / 81011.3 8.2 5.1
2017-Jun-23 15:00N 58°30' W 063°24'0 0.0 120 / 151011.2 8.7 4.8
2017-Jun-23 14:00N 58°30' W 063°24'2512.5 120 / 81011.9 7.7 5.1
2017-Jun-23 12:00N 58°30' W 062°36'1212.4 160 / 121012.8 3.7 3.6
2017-Jun-23 11:00N 58°18' W 062°30'9 8.7 140 / 61012.6 4.0 4.0
2017-Jun-23 10:00N 58°12' W 062°42'1414.0 070 / 71012.5 4.3 4.3
2017-Jun-23 09:00N 58°06' W 063°06'3 3.2 060 / 91012.6 5.5 5.2
2017-Jun-23 08:00N 58°06' W 063°12'0 0.0 090 / 61012.6 5.3 5.2
2017-Jun-23 07:00N 58°06' W 063°12'0 0.0 070 / 61012.8 5.4 5.3
2017-Jun-23 06:00N 58°06' W 063°12'0 0.0 060 / 101013.1 5.4 5.2
2017-Jun-23 05:00N 58°06' W 063°12'0 0.0 070 / 91013.3 6.1 5.1
2017-Jun-23 04:00N 58°06' W 063°12'0 0.0 060 / 81013.4 5.7 5.5
2017-Jun-23 03:00N 58°06' W 063°12'0 0.0 060 / 101013.7 5.8 5.7
2017-Jun-23 02:00N 58°06' W 063°12'0 0.0 070 / 81013.4 6.3 5.9
2017-Jun-23 01:00N 58°06' W 063°12'0 0.0 020 / 61013.3 6.4 6.2
2017-Jun-23 00:00N 58°06' W 063°12'0 0.0 060 / 61013.2 8.0 5.8
2017-Jun-22 23:00N 58°06' W 063°12'0 0.0 040 / 41013.0 8.4 6.2
2017-Jun-22 22:00N 58°06' W 063°12'0 0.0 040 / 61012.5 7.8 6.6
2017-Jun-22 21:00N 58°06' W 063°12'0 0.0 040 / 111012.3 7.8 6.6
2017-Jun-22 20:00N 58°06' W 063°12'0 0.0 060 / 101012.4 7.1 6.5
2017-Jun-22 19:00N 58°06' W 063°12'0 0.0 030 / 31012.5 7.1 7.0
2017-Jun-22 18:00N 58°06' W 063°12'0 0.0 060 / 31012.7 6.4 6.4
2017-Jun-22 17:00N 58°06' W 063°12'0 0.0 050 / 21012.9 6.0 6.0
2017-Jun-22 16:00N 58°06' W 063°12'0 0.0 060 / 41013.1 5.0 5.0
2017-Jun-22 15:00N 58°06' W 063°12'0 0.0 060 / 31013.2 5.9 5.8
2017-Jun-22 14:00N 58°06' W 063°12'1414.0 050 / 41012.9 4.8 4.7
2017-Jun-22 13:00N 58°12' W 062°48'6 6.3 100 / 81013.0 3.6 3.6
2017-Jun-22 12:00N 58°12' W 062°36'1414.0 060 / 21012.8 2.6 2.6
2017-Jun-22 11:00N 58°18' W 062°12'1312.6 110 / 31012.6 2.0 2.1
2017-Jun-22 10:00N 58°18' W 061°48'1111.2 020 / 61011.9 1.8 1.9
2017-Jun-22 09:00N 58°12' W 061°30'1414.0 040 / 51011.7 2.2 2.3
2017-Jun-22 08:00N 58°06' W 061°06'1717.5 020 / 51011.5 2.6 2.6
2017-Jun-22 07:00N 57°54' W 060°42'9 8.8 050 / 71011.0 2.3 2.4
2017-Jun-22 06:00N 57°48' W 060°30'1413.6 040 / 101011.0 2.1 2.2
2017-Jun-22 05:00N 57°36' W 060°18'1414.2 040 / 101010.7 1.9 1.9
2017-Jun-22 04:00N 57°30' W 059°54'1111.4 030 / 101010.7 2.1 2.1
2017-Jun-22 03:00N 57°24' W 059°36'1111.4 010 / 81010.7 2.2 2.2
2017-Jun-22 02:00N 57°18' W 059°18'9 8.8 010 / 81010.5 2.6 2.7
2017-Jun-22 01:00N 57°12' W 059°06'1515.5 010 / 71009.9 2.7 2.7
2017-Jun-22 00:00N 57°00' W 058°48'1211.5 020 / 61009.1 2.5 2.5
2017-Jun-21 23:00N 56°54' W 058°30'1413.7 030 / 91008.3 3.1 3.1
2017-Jun-21 22:00N 56°42' W 058°18'9 8.9 030 / 111007.9 3.2 3.2
2017-Jun-21 21:00N 56°36' W 058°06'1413.7 020 / 81007.6 3.8 3.8
2017-Jun-21 20:00N 56°24' W 057°54'1211.6 030 / 141006.7 3.6 3.6
2017-Jun-21 19:00N 56°18' W 057°36'1212.5 020 / 141006.0 3.7 3.7
2017-Jun-21 18:00N 56°06' W 057°30'1413.7 020 / 151005.4 3.3 3.3
2017-Jun-21 17:00N 55°54' W 057°18'7 6.9 010 / 121004.6 2.4 2.4
2017-Jun-21 16:00N 55°48' W 057°12'1615.7 360 / 141003.8 2.0 2.0
2017-Jun-21 15:00N 55°36' W 056°54'2110.3 030 / 171002.5 2.7 2.7
2017-Jun-21 13:00N 55°18' W 056°36'1413.8 030 / 201000.3 2.4 2.4
2017-Jun-21 12:00N 55°06' W 056°24'1413.8 030 / 20999.1 2.7 2.7
2017-Jun-21 11:00N 54°54' W 056°12'1212.5 050 / 20998.2 2.7 2.8
2017-Jun-21 10:00N 54°42' W 056°06'9 9.2 050 / 20997.7 2.5 2.5
2017-Jun-21 09:00N 54°36' W 055°54'1413.9 080 / 9997.2 2.3 2.3
2017-Jun-21 08:00N 54°24' W 055°42'7 6.9 040 / 17996.5 1.9 1.9
2017-Jun-21 07:00N 54°18' W 055°36'1413.9 070 / 10996.7 3.0 3.0
2017-Jun-21 06:00N 54°06' W 055°24'1312.5 080 / 8997.5 2.9 2.9
2017-Jun-21 05:00N 53°54' W 055°18'9 9.3 120 / 9997.9 3.0 3.0
2017-Jun-21 04:00N 53°48' W 055°06'9 9.3 120 / 9999.5 3.1 3.1
2017-Jun-21 03:00N 53°42' W 054°54'1312.5 070 / 10999.5 2.8 2.8
2017-Jun-21 02:00N 53°30' W 054°48'7 7.0 010 / 71001.0 2.5 2.5
2017-Jun-21 01:00N 53°24' W 054°42'1212.0 300 / 81001.3 3.0 3.0
2017-Jun-21 00:00N 53°12' W 054°42'1818.4 270 / 101001.9 3.3 3.3
2017-Jun-20 23:00N 52°54' W 054°36'6 6.0 300 / 81001.7 4.1 4.1
2017-Jun-20 22:00N 52°48' W 054°36'1212.0 250 / 111003.0 4.5 4.5
2017-Jun-20 21:00N 52°36' W 054°36'1212.0 240 / 141002.2 4.9 4.9
2017-Jun-20 20:00N 52°24' W 054°36'1312.5 210 / 261002.3 6.7 6.8
2017-Jun-20 19:00N 52°12' W 054°42'6 6.0 210 / 171003.5 6.3 6.4
2017-Jun-20 18:00N 52°06' W 054°42'1212.0 210 / 161004.8 6.0 6.0
2017-Jun-20 17:00N 51°54' W 054°42'1212.0 180 / 151005.5 5.5 5.5
2017-Jun-20 16:00N 51°42' W 054°42'1212.0 180 / 91006.4 4.6 4.6
2017-Jun-20 15:00N 51°30' W 054°42'6 6.0 200 / 61007.3 4.5 4.5
2017-Jun-20 14:00N 51°24' W 054°42'1312.6
2017-Jun-20 13:00N 51°12' W 054°48'1212.0 210 / 141008.7 5.1 5.1
2017-Jun-20 12:00N 51°00' W 054°48'6 6.0 210 / 91009.7 5.3 5.2
2017-Jun-20 11:00N 50°54' W 054°48'1212.0 210 / 81010.1 4.8 4.8
2017-Jun-20 10:00N 50°42' W 054°48'1312.6 190 / 91010.3 5.3 5.3
2017-Jun-20 09:00N 50°30' W 054°54'7 7.1 180 / 71011.2 4.8 4.8
2017-Jun-20 08:00N 50°24' W 054°48'1312.6 120 / 31011.3 4.9 4.8
2017-Jun-20 07:00N 50°12' W 054°54'6 6.0 070 / 91011.3 4.9 4.8
2017-Jun-20 06:00N 50°06' W 054°54'1212.0 020 / 61012.1 5.1 5.1
2017-Jun-20 05:00N 49°54' W 054°54'0 0.0 340 / 91012.4 5.4 5.3
2017-Jun-20 04:00N 49°54' W 054°54'6 6.0 310 / 71012.6 5.9 5.8
2017-Jun-20 03:00N 49°48' W 054°54'6 6.0 360 / 61012.4 8.3 8.2
2017-Jun-20 02:00N 49°42' W 054°54'0 0.0 340 / 111012.3 8.4 8.3
2017-Jun-20 01:00N 49°42' W 054°54'0 0.0 290 / 81012.2 16.216.1
2017-Jun-20 00:00N 49°42' W 054°54'0 0.0 280 / 41011.6 15.515.4
2017-Jun-19 23:00N 49°42' W 054°54'0 0.0 240 / 101010.9 16.716.6
2017-Jun-19 22:00N 49°42' W 054°54'0 0.0 250 / 71010.5 18.318.3
2017-Jun-19 21:00N 49°42' W 054°54'10 9.8 230 / 31009.9 20.520.5
2017-Jun-19 20:00N 49°36' W 055°06'6 6.0 330 / 11009.5 21.221.1
2017-Jun-19 19:00N 49°30' W 055°06'1312.6 150 / 11009.3 20.120.0
2017-Jun-19 18:00N 49°18' W 055°12'7 7.2 210 / 131009.4 24.921.8
2017-Jun-19 17:00N 49°12' W 055°18'0 0.0 220 / 71009.4 24.721.4
2017-Jun-19 16:00N 49°12' W 055°18'0 0.0 220 / 171009.4 24.721.6
2017-Jun-19 15:00N 49°12' W 055°18'7 7.2 220 / 171009.3 25.122.0
2017-Jun-19 14:00N 49°18' W 055°12'1818.4 170 / 151009.4 21.319.4
2017-Jun-19 13:00N 49°36' W 055°06'0 0.0 170 / 191009.7 17.616.9
2017-Jun-19 12:00N 49°36' W 055°06'1312.6 170 / 151010.4 16.416.0
2017-Jun-19 11:00N 49°24' W 055°12'1312.6 190 / 141011.2 14.714.6
2017-Jun-19 10:00N 49°12' W 055°18'6 6.0 200 / 131011.5 17.816.3
2017-Jun-19 09:00N 49°06' W 055°18'0 0.0 210 / 61011.2 22.517.9
2017-Jun-19 08:00N 49°06' W 055°18'0 0.0 210 / 61011.0 18.316.1
2017-Jun-19 07:00N 49°06' W 055°18'0 0.0 210 / 61011.1 14.614.3
2017-Jun-19 06:00N 49°06' W 055°18'0 0.0 210 / 91011.1 14.113.6
2017-Jun-19 05:00N 49°06' W 055°18'0 0.0 210 / 71011.5 13.313.2
2017-Jun-19 04:00N 49°06' W 055°18'0 0.0 210 / 81012.1 13.413.2
2017-Jun-19 03:00N 49°06' W 055°18'0 0.0 210 / 121012.6 13.613.5
2017-Jun-19 02:00N 49°06' W 055°18'0 0.0 210 / 51012.9 15.515.2
2017-Jun-19 01:00N 49°06' W 055°18'0 0.0 210 / 111013.2 15.815.7
2017-Jun-19 00:00N 49°06' W 055°18'0 0.0 160 / 71013.4 16.916.6
2017-Jun-18 23:00N 49°06' W 055°18'0 0.0 200 / 121014.4 16.616.3
2017-Jun-18 22:00N 49°06' W 055°18'0 0.0 200 / 101015.2 16.516.2
2017-Jun-18 21:00N 49°06' W 055°18'0 0.0 190 / 121015.6 17.416.6
2017-Jun-18 20:00N 49°06' W 055°18'0 0.0 210 / 171016.2 17.216.6
2017-Jun-18 18:00N 49°06' W 055°18'0 0.0 200 / 171016.3 18.917.2
2017-Jun-18 17:00N 49°06' W 055°18'0 0.0 200 / 201017.6 16.816.1
2017-Jun-18 16:00N 49°06' W 055°18'0 0.0 210 / 201017.8 17.215.9
2017-Jun-18 15:00N 49°06' W 055°18'0 0.0 210 / 171018.1 16.215.3
2017-Jun-18 14:00N 49°06' W 055°18'0 0.0 210 / 181018.7 14.914.6
2017-Jun-18 13:00N 49°06' W 055°18'0 0.0 210 / 131019.6 14.314.0
2017-Jun-18 12:00N 49°06' W 055°18'0 0.0 210 / 131020.0 13.413.2
2017-Jun-18 11:00N 49°06' W 055°18'0 0.0 210 / 141020.3 12.912.7
2017-Jun-18 10:00N 49°06' W 055°18'0 0.0 210 / 121020.2 12.612.4
2017-Jun-18 09:00N 49°06' W 055°18'0 0.0 210 / 131020.9 11.611.5
2017-Jun-18 08:00N 49°06' W 055°18'0 0.0 210 / 121021.2 11.311.1
2017-Jun-18 07:00N 49°06' W 055°18'0 0.0 210 / 111021.5 11.310.9
2017-Jun-18 06:00N 49°06' W 055°18'0 0.0 210 / 81022.1 11.811.0
2017-Jun-18 05:00N 49°06' W 055°18'0 0.0 210 / 111022.3 11.810.8
2017-Jun-18 04:00N 49°06' W 055°18'0 0.0 210 / 131022.9 13.111.0
2017-Jun-18 03:00N 49°06' W 055°18'0 0.0 210 / 111023.5 14.011.5
2017-Jun-18 02:00N 49°06' W 055°18'0 0.0 210 / 81023.8 15.011.8
2017-Jun-18 01:00N 49°06' W 055°18'0 0.0 210 / 91024.0 15.810.7
2017-Jun-18 00:00N 49°06' W 055°18'0 0.0 210 / 101024.0 16.510.9
2017-Jun-17 23:00N 49°06' W 055°18'0 0.0 200 / 61024.1 17.510.6
2017-Jun-17 22:00N 49°06' W 055°18'0 0.0 210 / 91023.7 18.710.6
2017-Jun-17 21:00N 49°06' W 055°18'0 0.0 210 / 61024.0 18.712.1
2017-Jun-17 20:00N 49°06' W 055°18'0 0.0 220 / 21024.1 19.011.9
2017-Jun-17 19:00N 49°06' W 055°18'0 0.0 210 / 81023.9 19.710.7
2017-Jun-17 18:00N 49°06' W 055°18'0 0.0 220 / 51023.9 20.110.4
2017-Jun-17 17:00N 49°06' W 055°18'0 0.0 210 / 51024.1 19.510.5
2017-Jun-17 16:00N 49°06' W 055°18'0 0.0 210 / 41024.2 19.7 9.7
2017-Jun-17 15:00N 49°06' W 055°18'0 0.0 210 / 81024.3 20.110.3
2017-Jun-17 14:00N 49°06' W 055°18'0 0.0 220 / 41025.1 19.0 8.8
2017-Jun-17 13:00N 49°06' W 055°18'0 0.0 190 / 31025.6 16.310.1
2017-Jun-17 12:00N 49°06' W 055°18'0 0.0 160 / 21026.0 14.210.4
2017-Jun-17 11:00N 49°06' W 055°18'0 0.0 200 / 31026.1 11.9 8.9
2017-Jun-17 10:00N 49°06' W 055°18'0 0.0 210 / 51026.1 10.2 8.2
2017-Jun-17 09:00N 49°06' W 055°18'0 0.0 210 / 41025.8 8.7 7.3
2017-Jun-17 08:00N 49°06' W 055°18'0 0.0 200 / 41025.5 8.2 7.2
2017-Jun-17 07:00N 49°06' W 055°18'0 0.0 210 / 41024.9 8.8 7.0
2017-Jun-17 06:00N 49°06' W 055°18'0 0.0 150 / 11024.9 8.7 7.6
2017-Jun-17 05:00N 49°06' W 055°18'0 0.0 210 / 61024.6 9.6 7.7
2017-Jun-17 04:00N 49°06' W 055°18'0 0.0 210 / 51024.4 9.2 8.2
2017-Jun-17 03:00N 49°06' W 055°18'0 0.0 1024.0 8.9 8.5
2017-Jun-17 02:00N 49°06' W 055°18'0 0.0 220 / 11023.6 12.3 8.8
2017-Jun-17 01:00N 49°06' W 055°18'0 0.0 300 / 51023.6 12.1 7.5
2017-Jun-17 00:00N 49°06' W 055°18'0 0.0 010 / 11023.0 13.5 9.1
2017-Jun-16 23:00N 49°06' W 055°18'0 0.0 020 / 21023.0 14.5 8.8
2017-Jun-16 22:00N 49°06' W 055°18'0 0.0 090 / 31022.5 14.9 7.7
2017-Jun-16 21:00N 49°06' W 055°18'0 0.0 350 / 61022.3 12.6 8.2
2017-Jun-16 20:00N 49°06' W 055°18'0 0.0 360 / 61022.3 12.7 7.3
2017-Jun-16 19:00N 49°06' W 055°18'0 0.0 360 / 51022.3 13.3 7.2
2017-Jun-16 18:00N 49°06' W 055°18'0 0.0 050 / 91022.3 12.3 5.5
2017-Jun-16 17:00N 49°06' W 055°18'0 0.0 040 / 91022.3 12.0 4.6
2017-Jun-16 16:00N 49°06' W 055°18'0 0.0 020 / 101022.5 11.8 5.5
2017-Jun-16 15:00N 49°06' W 055°18'0 0.0 360 / 81022.5 11.8 6.9
2017-Jun-16 14:00N 49°06' W 055°18'0 0.0 020 / 121022.1 10.6 7.4
2017-Jun-16 13:00N 49°06' W 055°18'0 0.0 330 / 81021.8 12.0 7.5
2017-Jun-16 12:00N 49°06' W 055°18'0 0.0 320 / 61021.8 11.3 6.9
2017-Jun-16 11:00N 49°06' W 055°18'0 0.0 140 / 31021.5 9.5 8.4
2017-Jun-16 10:00N 49°06' W 055°18'0 0.0 210 / 21021.1 8.4 7.1
2017-Jun-16 09:00N 49°06' W 055°18'0 0.0 200 / 51020.4 3.3 3.1
2017-Jun-16 08:00N 49°06' W 055°18'0 0.0 210 / 21019.9 3.4 3.2
2017-Jun-16 07:00N 49°06' W 055°18'   210 / 31019.8 3.4 3.2

Dump ship's entire track history